Time;durP1;ratioP1;P1;durP2;ratioP2;P2;SDS_P1;SDS_P2;PMS_P1;PMS_P2;Temp;Humidity;BMP_temperature;BMP_pressure;BME280_temperature;BME280_humidity;BME280_pressure;Samples;Min_cycle;Max_cycle;Signal;HPM_P1;HPM_P2
2023/08/29 00:01:40;;;;;;;5.68;2.17;;;18.00;72.80;;;;;;5023411;28;20364;-65
2023/08/29 00:04:06;;;;;;;3.65;1.65;;;18.00;72.90;;;;;;5041866;28;20061;-65
2023/08/29 00:06:32;;;;;;;4.35;1.63;;;18.00;72.90;;;;;;5023400;28;20021;-65
2023/08/29 00:08:58;;;;;;;5.05;2.00;;;18.00;72.90;;;;;;5016418;28;20036;-66
2023/08/29 00:11:23;;;;;;;4.53;1.60;;;18.00;73.00;;;;;;5018738;28;20366;-65
2023/08/29 00:13:52;;;;;;;4.68;1.70;;;18.00;72.90;;;;;;5019362;28;21386;-65
2023/08/29 00:16:18;;;;;;;2.75;1.40;;;18.00;73.00;;;;;;5028342;28;20025;-65
2023/08/29 00:18:44;;;;;;;4.95;1.88;;;18.00;73.00;;;;;;5025948;28;20463;-65
2023/08/29 00:21:09;;;;;;;5.63;2.03;;;17.90;73.00;;;;;;5019109;28;20025;-65
2023/08/29 00:23:35;;;;;;;5.60;2.13;;;17.90;73.10;;;;;;5025881;28;20029;-65
2023/08/29 00:26:01;;;;;;;4.85;1.80;;;17.90;73.20;;;;;;5017477;28;20026;-65
2023/08/29 00:28:27;;;;;;;3.10;1.58;;;17.90;73.10;;;;;;5018249;28;20060;-65
2023/08/29 00:30:53;;;;;;;6.70;1.98;;;17.90;73.20;;;;;;5049761;28;20022;-65
2023/08/29 00:33:19;;;;;;;3.53;1.58;;;17.90;73.20;;;;;;5046144;28;20468;-65
2023/08/29 00:35:47;;;;;;;5.32;1.70;;;17.90;73.20;;;;;;5017603;28;20546;-65
2023/08/29 00:38:13;;;;;;;4.40;1.70;;;17.90;73.30;;;;;;5031225;28;20456;-65
2023/08/29 00:40:39;;;;;;;4.38;1.65;;;17.80;73.30;;;;;;5016995;28;20045;-65
2023/08/29 00:43:05;;;;;;;3.08;1.58;;;17.80;73.30;;;;;;5014345;28;20575;-65
2023/08/29 00:45:33;;;;;;;3.17;1.48;;;17.80;73.30;;;;;;5019830;28;20025;-65
2023/08/29 00:48:00;;;;;;;3.95;1.70;;;17.80;73.30;;;;;;5022612;28;20299;-65
2023/08/29 00:50:26;;;;;;;4.68;1.85;;;17.80;73.30;;;;;;5047394;28;20030;-65
2023/08/29 00:52:58;;;;;;;4.45;1.50;;;17.80;73.30;;;;;;5019908;28;20041;-65
2023/08/29 00:55:25;;;;;;;3.35;1.50;;;17.80;73.40;;;;;;5019491;28;20029;-65
2023/08/29 00:57:56;;;;;;;4.18;1.90;;;17.80;73.40;;;;;;5018924;28;20094;-65
2023/08/29 01:00:26;;;;;;;4.90;1.98;;;17.80;73.40;;;;;;5013811;28;20022;-65
2023/08/29 01:02:53;;;;;;;6.07;1.73;;;17.80;73.40;;;;;;5016222;28;20024;-65
2023/08/29 01:05:22;;;;;;;4.43;1.88;;;17.70;73.40;;;;;;5030636;28;20034;-65
2023/08/29 01:07:53;;;;;;;3.25;1.50;;;17.70;73.40;;;;;;5021083;28;20060;-65
2023/08/29 01:10:46;;;;;;;5.63;1.60;;;17.70;73.40;;;;;;5011859;28;20033;-65
2023/08/29 01:13:38;;;;;;;3.70;1.60;;;17.70;73.50;;;;;;5017746;28;20069;-65
2023/08/29 01:16:08;;;;;;;4.20;1.60;;;17.70;73.50;;;;;;5017165;28;20034;-65
2023/08/29 01:18:36;;;;;;;3.50;1.55;;;17.60;73.50;;;;;;5046932;28;20026;-65
2023/08/29 01:21:28;;;;;;;2.85;1.30;;;17.60;73.60;;;;;;5013711;28;20032;-65
2023/08/29 01:24:02;;;;;;;4.80;1.63;;;17.60;73.50;;;;;;5002745;28;20108;-65
2023/08/29 01:26:32;;;;;;;7.25;1.60;;;17.60;73.60;;;;;;5014845;28;20052;-65
2023/08/29 01:29:00;;;;;;;3.88;1.50;;;17.50;73.70;;;;;;5015856;28;20395;-65
2023/08/29 01:31:29;;;;;;;3.72;1.40;;;17.50;74.50;;;;;;5017240;28;20037;-67
2023/08/29 01:33:58;;;;;;;3.78;1.42;;;17.50;73.90;;;;;;5018608;28;20029;-65
2023/08/29 01:36:37;;;;;;;4.95;1.83;;;17.50;73.90;;;;;;4998965;28;20486;-65
2023/08/29 01:39:02;;;;;;;3.67;1.48;;;17.50;74.00;;;;;;5032017;28;20044;-65
2023/08/29 01:41:28;;;;;;;3.03;1.58;;;17.50;73.90;;;;;;5017765;28;20025;-65
2023/08/29 01:43:54;;;;;;;4.18;1.40;;;17.50;73.90;;;;;;5017765;28;20030;-65
2023/08/29 01:46:20;;;;;;;5.07;1.50;;;17.50;73.90;;;;;;5024371;28;20025;-65
2023/08/29 01:48:47;;;;;;;5.10;1.60;;;17.50;74.00;;;;;;5018469;28;20461;-65
2023/08/29 01:51:12;;;;;;;3.25;1.60;;;17.50;74.00;;;;;;5044572;28;20034;-65
2023/08/29 01:53:38;;;;;;;4.60;1.63;;;17.50;74.10;;;;;;5016450;28;20040;-65
2023/08/29 01:56:07;;;;;;;3.97;1.40;;;17.50;74.10;;;;;;5014649;28;20021;-65
2023/08/29 01:58:35;;;;;;;4.97;1.70;;;17.50;74.20;;;;;;5045071;28;20021;-65
2023/08/29 02:01:01;;;;;;;3.50;1.50;;;17.50;74.30;;;;;;5025921;28;20037;-65
2023/08/29 02:03:28;;;;;;;2.75;1.40;;;17.40;74.20;;;;;;5002456;28;20022;-66
2023/08/29 02:05:53;;;;;;;4.65;1.63;;;17.40;74.30;;;;;;5018780;28;20057;-65
2023/08/29 02:08:19;;;;;;;4.63;1.50;;;17.40;74.30;;;;;;5028738;28;20127;-65
2023/08/29 02:10:45;;;;;;;4.53;1.50;;;17.50;74.40;;;;;;5023884;28;20060;-65
2023/08/29 02:13:12;;;;;;;2.80;1.40;;;17.50;74.40;;;;;;5044191;28;20362;-65
2023/08/29 02:15:37;;;;;;;5.10;1.65;;;17.50;74.40;;;;;;5037014;28;20026;-65
2023/08/29 02:18:03;;;;;;;4.78;1.63;;;17.50;74.40;;;;;;5016311;28;20053;-65
2023/08/29 02:20:29;;;;;;;3.83;1.50;;;17.40;74.40;;;;;;5054247;28;20064;-65
2023/08/29 02:22:55;;;;;;;2.72;1.38;;;17.40;74.50;;;;;;5017574;28;20592;-65
2023/08/29 02:25:21;;;;;;;3.47;1.55;;;17.40;74.60;;;;;;5015654;28;20113;-65
2023/08/29 02:27:47;;;;;;;2.47;1.30;;;17.40;74.50;;;;;;5048160;28;20112;-65
2023/08/29 02:30:12;;;;;;;3.85;1.45;;;17.40;74.60;;;;;;5018502;28;20143;-65
2023/08/29 02:32:40;;;;;;;4.20;1.52;;;17.40;74.60;;;;;;5045422;28;20121;-65
2023/08/29 02:35:06;;;;;;;3.15;1.48;;;17.40;74.70;;;;;;5017254;28;20489;-65
2023/08/29 02:37:34;;;;;;;4.68;1.88;;;17.30;74.70;;;;;;5035533;28;20032;-65
2023/08/29 02:40:00;;;;;;;3.80;1.42;;;17.30;74.70;;;;;;5016494;28;20076;-65
2023/08/29 02:42:26;;;;;;;4.50;2.03;;;17.30;74.80;;;;;;5018389;28;20025;-65
2023/08/29 02:44:52;;;;;;;3.70;1.60;;;17.30;74.80;;;;;;5044929;28;20033;-65
2023/08/29 02:47:18;;;;;;;4.43;1.50;;;17.30;74.90;;;;;;5019247;28;20083;-65
2023/08/29 02:49:44;;;;;;;4.97;1.75;;;17.20;74.90;;;;;;5016536;28;20021;-65
2023/08/29 02:52:09;;;;;;;4.40;1.77;;;17.20;74.90;;;;;;5049107;28;20379;-65
2023/08/29 02:54:35;;;;;;;5.45;1.90;;;17.20;75.00;;;;;;5031287;28;20032;-65
2023/08/29 02:57:01;;;;;;;3.67;1.50;;;17.20;75.00;;;;;;5014426;28;20037;-65
2023/08/29 02:59:27;;;;;;;3.60;1.65;;;17.20;75.00;;;;;;5029279;28;20026;-65
2023/08/29 03:01:53;;;;;;;3.38;1.58;;;17.20;75.00;;;;;;5054403;28;20033;-65
2023/08/29 03:04:19;;;;;;;3.70;1.50;;;17.10;75.00;;;;;;5010636;28;20025;-65
2023/08/29 03:06:45;;;;;;;4.40;1.60;;;17.10;75.10;;;;;;5026988;28;20013;-65
2023/08/29 03:09:12;;;;;;;3.97;1.63;;;17.10;75.20;;;;;;5026937;28;20443;-65
2023/08/29 03:11:38;;;;;;;3.53;1.50;;;17.10;75.10;;;;;;5029845;28;20035;-65
2023/08/29 03:14:03;;;;;;;3.28;1.42;;;17.10;75.10;;;;;;5014563;28;20025;-65
2023/08/29 03:16:29;;;;;;;4.57;1.52;;;17.10;75.20;;;;;;5026574;28;20471;-65
2023/08/29 03:18:55;;;;;;;5.45;1.50;;;17.00;75.10;;;;;;5030861;28;20029;-65
2023/08/29 03:21:21;;;;;;;4.95;1.58;;;17.00;75.10;;;;;;5031437;28;20021;-65
2023/08/29 03:23:46;;;;;;;4.80;1.40;;;17.00;75.20;;;;;;5012841;28;20036;-66
2023/08/29 03:26:12;;;;;;;3.63;1.70;;;16.90;75.20;;;;;;5031241;28;20025;-65
2023/08/29 03:28:40;;;;;;;5.10;1.77;;;17.00;75.30;;;;;;5024314;28;20351;-65
2023/08/29 03:31:14;;;;;;;5.32;1.65;;;16.90;75.20;;;;;;5061126;28;20021;-65
2023/08/29 03:33:41;;;;;;;4.22;1.60;;;16.90;75.20;;;;;;5044196;28;20052;-65
2023/08/29 03:36:07;;;;;;;4.63;1.50;;;16.90;75.30;;;;;;5029841;28;20042;-65
2023/08/29 03:38:40;;;;;;;4.47;1.70;;;16.90;75.20;;;;;;5027357;28;20430;-65
2023/08/29 03:41:07;;;;;;;4.15;1.77;;;16.80;75.20;;;;;;5044645;28;20045;-65
2023/08/29 03:43:34;;;;;;;3.55;1.50;;;16.80;75.20;;;;;;5029663;28;21187;-65
2023/08/29 03:46:02;;;;;;;3.33;1.50;;;16.80;75.30;;;;;;5029392;28;20462;-65
2023/08/29 03:48:29;;;;;;;4.68;1.83;;;16.80;75.30;;;;;;5028243;28;20053;-65
2023/08/29 03:50:55;;;;;;;5.03;1.50;;;16.80;75.30;;;;;;5029429;28;20053;-65
2023/08/29 03:53:22;;;;;;;3.70;1.33;;;16.70;75.30;;;;;;5029329;28;20525;-65
2023/08/29 03:55:48;;;;;;;3.80;1.50;;;16.70;75.30;;;;;;5030231;28;20049;-65
2023/08/29 03:58:14;;;;;;;4.20;1.80;;;16.70;75.30;;;;;;5028989;28;20064;-65
2023/08/29 04:00:41;;;;;;;3.17;1.67;;;16.70;75.40;;;;;;5061626;28;20446;-65
2023/08/29 04:03:07;;;;;;;5.93;1.85;;;16.70;75.40;;;;;;5029042;28;20018;-65
2023/08/29 04:05:37;;;;;;;4.38;1.75;;;16.60;75.40;;;;;;5026150;28;20028;-65
2023/08/29 04:08:07;;;;;;;3.47;1.55;;;16.60;75.40;;;;;;5029575;28;20022;-65
2023/08/29 04:10:37;;;;;;;3.95;1.67;;;16.60;75.40;;;;;;5031846;28;20458;-65
2023/08/29 04:13:04;;;;;;;3.63;1.60;;;16.60;75.40;;;;;;5058195;28;20025;-65
2023/08/29 04:15:29;;;;;;;4.25;1.67;;;16.50;75.40;;;;;;5031103;28;20116;-65
2023/08/29 04:17:56;;;;;;;3.80;1.80;;;16.60;75.50;;;;;;5047894;28;20037;-65
2023/08/29 04:20:22;;;;;;;4.88;1.92;;;16.50;75.40;;;;;;5027673;28;20047;-66
2023/08/29 04:22:48;;;;;;;3.60;1.40;;;16.50;75.40;;;;;;5028473;28;20108;-65
2023/08/29 04:25:14;;;;;;;4.88;2.15;;;16.50;75.50;;;;;;5030230;28;20145;-65
2023/08/29 04:27:41;;;;;;;4.60;1.60;;;16.50;75.50;;;;;;5032812;28;20441;-66
2023/08/29 04:30:07;;;;;;;4.03;1.80;;;16.50;75.50;;;;;;5027012;28;20029;-65
2023/08/29 04:32:37;;;;;;;3.53;1.70;;;16.50;75.60;;;;;;5028251;28;20040;-66
2023/08/29 04:35:07;;;;;;;5.43;1.73;;;16.50;75.60;;;;;;5045335;28;20025;-65
2023/08/29 04:37:36;;;;;;;4.20;1.75;;;16.40;75.50;;;;;;5031181;28;20103;-66
2023/08/29 04:40:06;;;;;;;3.72;1.70;;;16.40;75.50;;;;;;5030434;28;20033;-66
2023/08/29 04:42:33;;;;;;;4.40;1.60;;;16.40;75.50;;;;;;5010436;28;20026;-65
2023/08/29 04:45:04;;;;;;;6.03;1.75;;;16.40;75.50;;;;;;5029470;28;20048;-66
2023/08/29 04:47:33;;;;;;;3.55;1.77;;;16.40;75.60;;;;;;5030472;28;20085;-66
2023/08/29 04:50:00;;;;;;;5.88;1.90;;;16.40;75.60;;;;;;5025216;28;20127;-65
2023/08/29 04:52:26;;;;;;;6.43;2.22;;;16.40;75.60;;;;;;5036145;28;20481;-65
2023/08/29 04:54:53;;;;;;;4.22;1.77;;;16.40;75.60;;;;;;5046705;28;20033;-65
2023/08/29 04:57:19;;;;;;;4.90;1.77;;;16.40;75.50;;;;;;5036654;28;20354;-65
2023/08/29 04:59:44;;;;;;;4.88;1.95;;;16.30;75.50;;;;;;5030566;28;20025;-65
2023/08/29 05:02:10;;;;;;;3.47;1.88;;;16.30;75.50;;;;;;5033777;28;20053;-65
2023/08/29 05:04:36;;;;;;;4.65;1.88;;;16.30;75.50;;;;;;5035830;28;20546;-65
2023/08/29 05:07:03;;;;;;;4.82;1.73;;;16.30;75.50;;;;;;5034050;28;20030;-65
2023/08/29 05:09:29;;;;;;;4.15;1.70;;;16.30;75.50;;;;;;5035473;28;20120;-65
2023/08/29 05:11:55;;;;;;;4.43;1.70;;;16.30;75.50;;;;;;5034357;28;20502;-65
2023/08/29 05:14:21;;;;;;;3.95;1.70;;;16.30;75.50;;;;;;5033220;28;20029;-65
2023/08/29 05:16:47;;;;;;;5.25;1.77;;;16.30;75.50;;;;;;5026802;28;20040;-65
2023/08/29 05:19:12;;;;;;;3.58;1.70;;;16.30;75.50;;;;;;5027263;28;20032;-66
2023/08/29 05:21:38;;;;;;;3.38;1.65;;;16.20;75.50;;;;;;5033058;28;20033;-65
2023/08/29 05:24:08;;;;;;;4.43;1.95;;;16.30;75.60;;;;;;5020294;28;20079;-65
2023/08/29 05:26:34;;;;;;;6.82;1.70;;;16.30;75.60;;;;;;5033628;28;20026;-66
2023/08/29 05:29:00;;;;;;;5.15;1.70;;;16.30;75.60;;;;;;5031581;28;20028;-65
2023/08/29 05:31:25;;;;;;;4.63;1.63;;;16.30;75.60;;;;;;5027836;28;20324;-65
2023/08/29 05:33:51;;;;;;;5.63;2.00;;;16.30;75.60;;;;;;5025886;28;20443;-65
2023/08/29 05:36:17;;;;;;;5.03;1.73;;;16.30;75.60;;;;;;5011274;28;20041;-65
2023/08/29 05:38:42;;;;;;;5.10;1.80;;;16.30;75.60;;;;;;5029395;28;20370;-65
2023/08/29 05:41:08;;;;;;;5.10;2.13;;;16.30;75.60;;;;;;5027715;28;20025;-65
2023/08/29 05:43:34;;;;;;;4.38;1.63;;;16.30;75.60;;;;;;5030819;28;20112;-66
2023/08/29 05:46:02;;;;;;;5.25;2.03;;;16.30;75.60;;;;;;5029477;28;20018;-65
2023/08/29 05:48:28;;;;;;;5.78;2.00;;;16.30;75.60;;;;;;5028947;28;20080;-66
2023/08/29 05:50:54;;;;;;;5.95;2.05;;;16.30;75.50;;;;;;5031769;28;20108;-66
2023/08/29 05:53:19;;;;;;;5.50;2.20;;;16.40;75.60;;;;;;5028643;28;20121;-66
2023/08/29 05:55:46;;;;;;;6.03;2.40;;;16.40;75.60;;;;;;5025276;28;20086;-66
2023/08/29 05:58:12;;;;;;;6.65;2.20;;;16.40;75.60;;;;;;5030408;28;20462;-66
2023/08/29 06:00:37;;;;;;;4.75;1.88;;;16.40;75.60;;;;;;5027385;28;20068;-66
2023/08/29 06:03:04;;;;;;;5.28;1.92;;;16.40;75.50;;;;;;5024140;28;20061;-67
2023/08/29 06:05:32;;;;;;;5.32;2.15;;;16.50;75.60;;;;;;5053816;28;20053;-67
2023/08/29 06:08:00;;;;;;;4.13;1.88;;;16.50;75.60;;;;;;5024018;28;20061;-67
2023/08/29 06:10:26;;;;;;;4.97;1.95;;;16.50;75.50;;;;;;5029347;28;20061;-67
2023/08/29 06:12:52;;;;;;;6.22;1.85;;;16.50;75.50;;;;;;5033931;28;20061;-66
2023/08/29 06:15:18;;;;;;;5.25;2.08;;;16.60;75.50;;;;;;5026216;28;20041;-67
2023/08/29 06:17:43;;;;;;;3.90;1.77;;;16.60;75.50;;;;;;5027447;28;20037;-67
2023/08/29 06:20:11;;;;;;;5.07;2.00;;;16.60;75.50;;;;;;5031631;28;20029;-66
2023/08/29 06:22:37;;;;;;;4.05;1.73;;;16.60;75.40;;;;;;5027265;28;20438;-66
2023/08/29 06:25:04;;;;;;;5.10;1.98;;;16.70;75.40;;;;;;5022541;28;20028;-66
2023/08/29 06:27:30;;;;;;;6.70;2.00;;;16.70;75.40;;;;;;5029408;28;20065;-66
2023/08/29 06:29:56;;;;;;;5.30;2.05;;;16.70;75.40;;;;;;5028343;28;20072;-66
2023/08/29 06:32:22;;;;;;;5.03;2.30;;;16.80;75.40;;;;;;5042224;28;20025;-66
2023/08/29 06:34:48;;;;;;;4.85;2.05;;;16.80;75.30;;;;;;5024899;28;20458;-66
2023/08/29 06:37:16;;;;;;;6.22;2.10;;;16.90;75.30;;;;;;5026132;28;20053;-67
2023/08/29 06:39:45;;;;;;;5.93;2.45;;;17.00;75.30;;;;;;5030544;28;20029;-67
2023/08/29 06:42:11;;;;;;;6.97;2.35;;;17.10;75.20;;;;;;5028288;28;20022;-67
2023/08/29 06:44:36;;;;;;;6.68;2.50;;;17.20;75.10;;;;;;5026377;28;20032;-67
2023/08/29 06:47:02;;;;;;;5.57;2.47;;;17.20;74.80;;;;;;5028457;28;20030;-68
2023/08/29 06:49:28;;;;;;;7.85;2.40;;;17.30;74.60;;;;;;5029902;28;20033;-66
2023/08/29 06:51:54;;;;;;;5.55;2.30;;;17.40;74.50;;;;;;5028748;28;20037;-66
2023/08/29 06:54:19;;;;;;;7.45;2.65;;;17.50;74.50;;;;;;5030822;28;20052;-66
2023/08/29 06:56:45;;;;;;;6.47;2.33;;;17.60;74.30;;;;;;5026366;28;20064;-68
2023/08/29 06:59:11;;;;;;;5.65;2.35;;;17.70;74.10;;;;;;5030463;28;20117;-68
2023/08/29 07:01:37;;;;;;;5.60;2.60;;;17.90;73.90;;;;;;5033349;28;20083;-68
2023/08/29 07:04:04;;;;;;;5.80;2.20;;;18.00;73.70;;;;;;5024693;28;20026;-68
2023/08/29 07:06:30;;;;;;;7.03;2.58;;;18.20;73.40;;;;;;5026525;28;20333;-67
2023/08/29 07:08:56;;;;;;;8.90;3.00;;;18.40;73.10;;;;;;5035622;28;20438;-69
2023/08/29 07:11:22;;;;;;;6.35;2.70;;;18.60;72.60;;;;;;5031122;28;20108;-69
2023/08/29 07:13:48;;;;;;;5.30;2.60;;;18.90;72.20;;;;;;5031407;28;20093;-69
2023/08/29 07:16:14;;;;;;;6.82;2.50;;;19.00;71.80;;;;;;5029217;28;20025;-67
2023/08/29 07:18:40;;;;;;;5.20;1.95;;;19.20;71.40;;;;;;5059434;28;20026;-67
2023/08/29 07:21:06;;;;;;;6.63;2.33;;;19.30;71.10;;;;;;5033360;28;20029;-67
2023/08/29 07:23:31;;;;;;;4.95;2.30;;;19.30;70.80;;;;;;5035596;28;20025;-67
2023/08/29 07:25:58;;;;;;;3.78;1.90;;;19.40;70.70;;;;;;5036303;28;20478;-67
2023/08/29 07:28:24;;;;;;;7.68;2.05;;;19.40;70.50;;;;;;5034252;28;20040;-67
2023/08/29 07:30:52;;;;;;;5.20;2.05;;;19.50;70.30;;;;;;5030943;28;20443;-67
2023/08/29 07:33:18;;;;;;;5.40;1.80;;;19.50;70.20;;;;;;5022409;28;20136;-68
2023/08/29 07:35:47;;;;;;;6.60;2.00;;;19.50;70.30;;;;;;5035801;28;20053;-67
2023/08/29 07:38:13;;;;;;;4.93;2.03;;;19.50;70.20;;;;;;5025236;28;20474;-68
2023/08/29 07:40:39;;;;;;;5.68;1.80;;;19.60;70.20;;;;;;5024395;28;20401;-68
2023/08/29 07:43:07;;;;;;;4.75;1.60;;;19.60;70.00;;;;;;5049027;28;20102;-68
2023/08/29 07:45:34;;;;;;;3.10;1.30;;;19.60;69.60;;;;;;5016775;28;20339;-68
2023/08/29 07:48:03;;;;;;;4.18;1.60;;;19.60;69.60;;;;;;5016535;28;20049;-68
2023/08/29 07:50:28;;;;;;;3.25;1.23;;;19.60;69.40;;;;;;5022371;28;20439;-68
2023/08/29 07:52:55;;;;;;;4.63;1.50;;;19.60;69.50;;;;;;5021745;28;20037;-68
2023/08/29 07:55:21;;;;;;;3.85;1.75;;;19.60;69.60;;;;;;5025648;28;20129;-68
2023/08/29 07:57:48;;;;;;;4.53;1.42;;;19.60;69.80;;;;;;5016313;28;20116;-68
2023/08/29 08:00:14;;;;;;;4.32;1.77;;;19.60;69.90;;;;;;5025425;28;20415;-68
2023/08/29 08:02:40;;;;;;;2.92;1.63;;;19.60;70.20;;;;;;5020706;28;20026;-68
2023/08/29 08:05:10;;;;;;;3.60;1.40;;;19.60;70.20;;;;;;5022937;28;20088;-68
2023/08/29 08:07:36;;;;;;;4.50;1.60;;;19.60;70.20;;;;;;5015548;28;20029;-67
2023/08/29 08:10:04;;;;;;;3.65;1.40;;;19.60;70.10;;;;;;5016556;28;20029;-67
2023/08/29 08:12:31;;;;;;;4.40;1.88;;;19.70;70.20;;;;;;5019316;28;20079;-68
2023/08/29 08:14:57;;;;;;;3.33;1.50;;;19.70;70.20;;;;;;5027534;28;20035;-68
2023/08/29 08:17:22;;;;;;;3.88;1.33;;;19.80;70.10;;;;;;5016251;28;20034;-68
2023/08/29 08:19:48;;;;;;;3.40;1.45;;;19.80;69.90;;;;;;5033520;28;20017;-68
2023/08/29 08:22:14;;;;;;;4.95;1.50;;;19.80;69.90;;;;;;5033047;28;20034;-68
2023/08/29 08:24:40;;;;;;;3.10;1.20;;;19.90;69.80;;;;;;5026269;28;20034;-68
2023/08/29 08:27:07;;;;;;;4.07;1.40;;;19.90;69.80;;;;;;5035724;28;20037;-69
2023/08/29 08:29:33;;;;;;;3.65;1.35;;;20.00;69.70;;;;;;5032384;28;20038;-68
2023/08/29 08:31:59;;;;;;;3.17;1.15;;;20.00;69.60;;;;;;5029347;28;20033;-68
2023/08/29 08:34:25;;;;;;;2.58;1.17;;;20.10;69.60;;;;;;5025746;28;20045;-67
2023/08/29 08:36:51;;;;;;;4.10;1.20;;;20.10;69.50;;;;;;5032212;28;20041;-67
2023/08/29 08:39:17;;;;;;;4.28;1.33;;;20.10;69.20;;;;;;5035566;28;20025;-68
2023/08/29 08:41:43;;;;;;;2.90;1.00;;;20.20;69.00;;;;;;5034362;28;20116;-68
2023/08/29 08:44:11;;;;;;;5.47;1.10;;;20.20;68.90;;;;;;5032987;28;20017;-67
2023/08/29 08:46:38;;;;;;;3.53;1.00;;;20.30;68.50;;;;;;5027095;28;20360;-67
2023/08/29 08:49:06;;;;;;;3.85;1.20;;;20.40;67.90;;;;;;5035471;28;20021;-67
2023/08/29 08:51:34;;;;;;;3.78;1.10;;;20.50;67.50;;;;;;5035542;28;20045;-67
2023/08/29 08:54:00;;;;;;;2.47;1.27;;;20.50;67.20;;;;;;5032568;28;20022;-67
2023/08/29 08:56:28;;;;;;;3.55;1.27;;;20.60;67.00;;;;;;5034664;28;20033;-68
2023/08/29 08:58:54;;;;;;;1.85;0.93;;;20.70;66.70;;;;;;5029208;28;20053;-67
2023/08/29 09:01:20;;;;;;;4.57;1.50;;;20.70;66.50;;;;;;5034518;28;20454;-67
2023/08/29 09:03:46;;;;;;;2.00;0.93;;;20.80;66.40;;;;;;5035414;28;20444;-67
2023/08/29 09:06:14;;;;;;;3.78;1.13;;;20.80;66.20;;;;;;5033159;28;20021;-67
2023/08/29 09:08:40;;;;;;;2.45;0.95;;;20.90;65.80;;;;;;5029784;28;20113;-67
2023/08/29 09:11:06;;;;;;;1.85;0.77;;;21.00;65.50;;;;;;5033073;28;20104;-67
2023/08/29 09:13:32;;;;;;;4.05;1.10;;;21.20;65.20;;;;;;5027176;28;20030;-67
2023/08/29 09:15:59;;;;;;;3.28;1.35;;;21.30;65.00;;;;;;5025972;28;20071;-68
2023/08/29 09:18:31;;;;;;;2.60;1.00;;;21.50;64.50;;;;;;5018756;28;20040;-68
2023/08/29 09:21:00;;;;;;;1.80;0.90;;;21.60;63.90;;;;;;5033784;28;20335;-68
2023/08/29 09:23:36;;;;;;;1.67;0.90;;;21.70;64.40;;;;;;5029634;28;20041;-68
2023/08/29 09:26:01;;;;;;;2.42;0.75;;;21.80;63.40;;;;;;5015885;28;20518;-68
2023/08/29 09:28:29;;;;;;;3.78;1.20;;;21.90;63.40;;;;;;5027466;28;20108;-68
2023/08/29 09:31:09;;;;;;;3.10;1.23;;;21.90;62.90;;;;;;5029511;28;20037;-68
2023/08/29 09:33:36;;;;;;;2.95;0.95;;;21.90;62.60;;;;;;5034454;28;20032;-68
2023/08/29 09:36:05;;;;;;;1.08;0.80;;;21.80;62.70;;;;;;5031168;28;20461;-68
2023/08/29 09:38:33;;;;;;;3.35;1.20;;;21.80;62.60;;;;;;5025775;28;20042;-67
2023/08/29 09:40:59;;;;;;;1.92;0.90;;;21.80;62.90;;;;;;5021558;28;20395;-68
2023/08/29 09:43:27;;;;;;;1.95;0.88;;;21.80;62.90;;;;;;5027453;28;20049;-68
2023/08/29 09:45:54;;;;;;;3.05;0.95;;;21.90;62.80;;;;;;5023418;28;20156;-66
2023/08/29 09:48:20;;;;;;;2.72;1.08;;;22.10;62.40;;;;;;5026308;28;20124;-66
2023/08/29 09:50:47;;;;;;;2.58;0.90;;;22.10;62.10;;;;;;5020704;28;20025;-67
2023/08/29 09:53:20;;;;;;;1.52;0.70;;;22.20;61.90;;;;;;5018474;28;20033;-68
2023/08/29 09:55:49;;;;;;;2.60;0.90;;;22.20;61.50;;;;;;5056221;28;20029;-67
2023/08/29 09:58:22;;;;;;;1.77;0.80;;;22.30;61.30;;;;;;5028213;28;20025;-68
2023/08/29 10:00:49;;;;;;;2.60;1.05;;;22.40;61.00;;;;;;5020284;28;20038;-68
2023/08/29 10:03:17;;;;;;;3.08;0.93;;;22.60;60.90;;;;;;5025163;28;20045;-68
2023/08/29 10:05:44;;;;;;;2.72;1.15;;;22.70;60.60;;;;;;5027260;28;20024;-68
2023/08/29 10:08:31;;;;;;;4.28;1.45;;;22.90;60.40;;;;;;5024880;28;20037;-68
2023/08/29 10:10:59;;;;;;;2.15;1.05;;;23.00;59.90;;;;;;5056772;28;20477;-68
2023/08/29 10:13:25;;;;;;;2.15;0.90;;;23.20;60.00;;;;;;5024451;28;20033;-69
2023/08/29 10:15:52;;;;;;;3.13;1.20;;;23.30;59.80;;;;;;5021155;28;20044;-69
2023/08/29 10:18:18;;;;;;;2.65;1.13;;;23.40;59.60;;;;;;5026708;28;20018;-68
2023/08/29 10:20:45;;;;;;;2.05;0.90;;;23.60;59.20;;;;;;5025481;28;20037;-68
2023/08/29 10:23:15;;;;;;;3.10;1.00;;;23.70;58.70;;;;;;5036770;28;20027;-68
2023/08/29 10:25:42;;;;;;;1.97;1.00;;;23.80;58.40;;;;;;5027184;28;20030;-68
2023/08/29 10:28:12;;;;;;;2.05;1.00;;;23.90;58.20;;;;;;5026985;28;20037;-68
2023/08/29 10:30:42;;;;;;;1.73;0.77;;;24.00;57.90;;;;;;5029651;28;20032;-69
2023/08/29 10:33:07;;;;;;;2.40;0.82;;;24.10;57.40;;;;;;5027482;28;20057;-68
2023/08/29 10:35:34;;;;;;;2.67;1.00;;;24.10;57.30;;;;;;5023499;28;20551;-69
2023/08/29 10:38:18;;;;;;;2.08;0.90;;;24.20;57.10;;;;;;5026353;28;20025;-69
2023/08/29 10:40:45;;;;;;;2.58;1.10;;;24.30;56.80;;;;;;5026909;28;20040;-69
2023/08/29 10:43:22;;;;;;;2.67;1.08;;;24.20;56.70;;;;;;5024359;28;20108;-68
2023/08/29 10:45:51;;;;;;;2.33;1.02;;;24.00;56.70;;;;;;5025384;28;20097;-68
2023/08/29 10:48:22;;;;;;;3.28;1.25;;;23.70;57.00;;;;;;5033281;28;20143;-68
2023/08/29 10:51:08;;;;;;;1.85;0.90;;;23.40;57.20;;;;;;5031835;28;20025;-68
2023/08/29 10:53:43;;;;;;;2.72;1.10;;;23.10;57.90;;;;;;5022092;28;20536;-67
2023/08/29 10:56:09;;;;;;;4.97;1.45;;;22.80;58.80;;;;;;5028442;28;20032;-68
2023/08/29 10:58:39;;;;;;;2.35;1.23;;;22.60;59.60;;;;;;5027985;28;20034;-68
2023/08/29 11:01:07;;;;;;;4.43;1.40;;;22.30;60.20;;;;;;5031303;28;20162;-67
2023/08/29 11:03:50;;;;;;;3.25;1.52;;;22.10;60.90;;;;;;5029900;28;20427;-67
2023/08/29 11:06:21;;;;;;;3.20;1.30;;;21.90;61.90;;;;;;5025439;28;20026;-68
2023/08/29 11:08:47;;;;;;;;;;;21.70;61.70;;;;;;5031294;28;20034;-67
2023/08/29 11:11:18;;;;;;;4.53;1.58;;;21.60;61.90;;;;;;5028931;28;19909;-67
2023/08/29 11:13:53;;;;;;;;;;;21.40;62.40;;;;;;5026732;28;20445;-68
2023/08/29 11:16:19;;;;;;;4.25;1.30;;;21.30;62.70;;;;;;5023275;28;19910;-68
2023/08/29 11:18:47;;;;;;;3.13;1.65;;;21.20;63.10;;;;;;5033081;28;20443;-67
2023/08/29 11:21:15;;;;;;;4.25;1.67;;;21.10;63.70;;;;;;5023441;28;20037;-67
2023/08/29 11:23:43;;;;;;;3.20;1.60;;;21.10;64.40;;;;;;5026137;28;20014;-69
2023/08/29 11:26:09;;;;;;;3.70;1.60;;;21.00;64.30;;;;;;5031074;28;20018;-67
2023/08/29 11:28:44;;;;;;;3.55;1.65;;;21.00;64.40;;;;;;5030073;28;20529;-67
2023/08/29 11:31:12;;;;;;;3.50;1.45;;;21.00;64.50;;;;;;5025306;28;20057;-67
2023/08/29 11:33:38;;;;;;;4.93;1.73;;;21.00;64.60;;;;;;5038729;28;20384;-67
2023/08/29 11:36:07;;;;;;;4.35;1.80;;;21.00;64.80;;;;;;5025896;28;20041;-67
2023/08/29 11:38:33;;;;;;;4.35;2.05;;;21.00;64.90;;;;;;5027756;28;20354;-67
2023/08/29 11:41:06;;;;;;;6.43;2.05;;;21.00;64.70;;;;;;5027010;28;20037;-67
2023/08/29 11:43:33;;;;;;;5.53;2.03;;;21.10;64.80;;;;;;5012739;28;20366;-67
2023/08/29 11:46:01;;;;;;;5.50;2.55;;;21.00;64.60;;;;;;5022698;28;20022;-67
2023/08/29 11:48:31;;;;;;;4.90;2.22;;;21.10;64.60;;;;;;5028344;28;20110;-66
2023/08/29 11:51:00;;;;;;;4.75;2.20;;;21.20;64.50;;;;;;5027430;28;20431;-67
2023/08/29 11:53:34;;;;;;;5.95;2.40;;;21.20;64.40;;;;;;5026891;28;20037;-67
2023/08/29 11:56:02;;;;;;;4.03;1.98;;;21.30;64.20;;;;;;5032420;28;20026;-69
2023/08/29 11:58:36;;;;;;;5.28;2.08;;;21.30;64.00;;;;;;5028409;28;20049;-67
2023/08/29 12:01:04;;;;;;;5.65;2.20;;;21.60;63.70;;;;;;5052772;28;20045;-67
2023/08/29 12:03:34;;;;;;;5.15;2.20;;;22.00;63.00;;;;;;5022211;28;20030;-67
2023/08/29 12:06:00;;;;;;;4.45;1.95;;;22.10;62.30;;;;;;5057797;28;20025;-67
2023/08/29 12:08:41;;;;;;;5.80;2.55;;;22.20;62.00;;;;;;5022770;28;20037;-67
2023/08/29 12:11:13;;;;;;;3.88;1.88;;;22.30;61.80;;;;;;5034981;28;20188;-67
2023/08/29 12:13:41;;;;;;;3.75;1.80;;;22.30;61.70;;;;;;5027236;28;20092;-67
2023/08/29 12:16:14;;;;;;;4.57;2.00;;;22.30;61.70;;;;;;5055758;28;20021;-66
2023/08/29 12:18:40;;;;;;;4.88;2.10;;;22.30;61.40;;;;;;5038842;28;20451;-67
2023/08/29 12:21:14;;;;;;;5.07;2.33;;;22.30;61.60;;;;;;5019727;28;20018;-67
2023/08/29 12:23:42;;;;;;;5.82;2.50;;;22.20;61.70;;;;;;5028794;28;20022;-67
2023/08/29 12:26:09;;;;;;;4.30;1.90;;;22.20;61.80;;;;;;5041396;28;20109;-67
2023/08/29 12:28:35;;;;;;;3.72;1.80;;;22.20;61.30;;;;;;5028528;28;20365;-66
2023/08/29 12:31:01;;;;;;;3.65;1.63;;;22.30;61.20;;;;;;5021309;28;20120;-66
2023/08/29 12:33:26;;;;;;;2.70;1.50;;;22.30;61.20;;;;;;5030737;28;20122;-67
2023/08/29 12:35:53;;;;;;;3.75;1.83;;;22.30;60.90;;;;;;5024912;28;20024;-67
2023/08/29 12:38:20;;;;;;;3.88;1.80;;;22.30;60.70;;;;;;5032554;28;20032;-67
2023/08/29 12:40:45;;;;;;;4.90;1.98;;;22.30;60.60;;;;;;5031376;28;20037;-67
2023/08/29 12:43:12;;;;;;;4.47;1.90;;;22.30;60.50;;;;;;5035296;28;20021;-66
2023/08/29 12:45:39;;;;;;;5.50;1.90;;;22.20;60.30;;;;;;5035792;28;20360;-67
2023/08/29 12:48:05;;;;;;;5.40;1.95;;;22.20;60.40;;;;;;5034620;28;20033;-68
2023/08/29 12:50:31;;;;;;;4.30;1.70;;;22.20;60.40;;;;;;5033070;28;20052;-68